Half Day, Illinois
Current Conditions -  °F | °C
As of 12:57 PM on Monday 22 Dec 2014 (Local Time) from KPWK Reporting Station
Light Rain Light Rain  
Wind Chill: 30°   Ceiling: 2400
Heat Index: 35°   Visibility: 2.5mi
Dew Point: 32°   Wind: 6mph
Humidity: 89%   Direction: 100°E
Pressure: 29.78"   Gusts: NA
Location:  42.1941°N, 87.9317°W
Report Text: KPWK 221857Z 10005KT 2 1/2SM -RA BR FEW007 BKN024 OVC036 02/00 A2978 RMK AO2 P0000 T00170000
Loading
Personal Weather Stations






























Interactive Weather Map New forecast layout! Learn more

10-Day Weather Forecast

Advertisements
Track Severe Weather on mobile